sensor_id;sensor_type;location;lat;lon;timestamp;temperature;humidity
30473;DHT22;17263;48.160;11.452;2023-06-19T00:02:22;20.20;90.00
30473;DHT22;17263;48.160;11.452;2023-06-19T00:04:48;20.20;89.80
30473;DHT22;17263;48.160;11.452;2023-06-19T00:07:14;20.20;89.60
30473;DHT22;17263;48.160;11.452;2023-06-19T00:09:40;20.20;90.00
30473;DHT22;17263;48.160;11.452;2023-06-19T00:12:06;20.20;89.20
30473;DHT22;17263;48.160;11.452;2023-06-19T00:14:32;20.20;88.80
30473;DHT22;17263;48.160;11.452;2023-06-19T00:16:58;20.20;89.10
30473;DHT22;17263;48.160;11.452;2023-06-19T00:19:26;20.20;88.30
30473;DHT22;17263;48.160;11.452;2023-06-19T00:21:52;20.20;87.20
30473;DHT22;17263;48.160;11.452;2023-06-19T00:24:23;20.20;86.30
30473;DHT22;17263;48.160;11.452;2023-06-19T00:26:49;20.30;86.10
30473;DHT22;17263;48.160;11.452;2023-06-19T00:29:15;20.30;85.80
30473;DHT22;17263;48.160;11.452;2023-06-19T00:31:41;20.40;85.70
30473;DHT22;17263;48.160;11.452;2023-06-19T00:34:07;20.40;85.40
30473;DHT22;17263;48.160;11.452;2023-06-19T00:36:33;20.40;85.90
30473;DHT22;17263;48.160;11.452;2023-06-19T00:39:06;20.40;85.20
30473;DHT22;17263;48.160;11.452;2023-06-19T00:41:37;20.50;84.30
30473;DHT22;17263;48.160;11.452;2023-06-19T00:44:04;20.50;84.60
30473;DHT22;17263;48.160;11.452;2023-06-19T00:46:30;20.50;84.80
30473;DHT22;17263;48.160;11.452;2023-06-19T00:48:57;20.50;84.70
30473;DHT22;17263;48.160;11.452;2023-06-19T00:51:23;20.60;84.90
30473;DHT22;17263;48.160;11.452;2023-06-19T00:53:49;20.60;85.40
30473;DHT22;17263;48.160;11.452;2023-06-19T00:56:15;20.60;85.70
30473;DHT22;17263;48.160;11.452;2023-06-19T00:58:44;20.60;85.50
30473;DHT22;17263;48.160;11.452;2023-06-19T01:01:10;20.60;85.40
30473;DHT22;17263;48.160;11.452;2023-06-19T01:03:37;20.60;85.30
30473;DHT22;17263;48.160;11.452;2023-06-19T01:06:08;20.60;85.50
30473;DHT22;17263;48.160;11.452;2023-06-19T01:08:56;20.60;85.00
30473;DHT22;17263;48.160;11.452;2023-06-19T01:11:31;20.60;85.60
30473;DHT22;17263;48.160;11.452;2023-06-19T01:14:09;20.60;85.70
30473;DHT22;17263;48.160;11.452;2023-06-19T01:16:35;20.70;85.70
30473;DHT22;17263;48.160;11.452;2023-06-19T01:19:04;20.70;86.00
30473;DHT22;17263;48.160;11.452;2023-06-19T01:21:31;20.60;86.10
30473;DHT22;17263;48.160;11.452;2023-06-19T01:23:57;20.60;86.70
30473;DHT22;17263;48.160;11.452;2023-06-19T01:26:23;20.60;86.50
30473;DHT22;17263;48.160;11.452;2023-06-19T01:28:53;20.60;87.30
30473;DHT22;17263;48.160;11.452;2023-06-19T01:31:36;20.60;87.10
30473;DHT22;17263;48.160;11.452;2023-06-19T01:34:04;20.60;87.10
30473;DHT22;17263;48.160;11.452;2023-06-19T01:36:32;20.60;87.20
30473;DHT22;17263;48.160;11.452;2023-06-19T01:38:58;20.60;87.50
30473;DHT22;17263;48.160;11.452;2023-06-19T01:41:25;20.50;87.90
30473;DHT22;17263;48.160;11.452;2023-06-19T01:43:52;20.50;87.50
30473;DHT22;17263;48.160;11.452;2023-06-19T01:46:19;20.50;87.70
30473;DHT22;17263;48.160;11.452;2023-06-19T01:48:45;20.50;88.10
30473;DHT22;17263;48.160;11.452;2023-06-19T01:51:11;20.50;88.40
30473;DHT22;17263;48.160;11.452;2023-06-19T01:53:37;20.40;88.00
30473;DHT22;17263;48.160;11.452;2023-06-19T01:56:03;20.50;88.60
30473;DHT22;17263;48.160;11.452;2023-06-19T01:58:29;20.40;89.10
30473;DHT22;17263;48.160;11.452;2023-06-19T02:00:55;20.40;89.70
30473;DHT22;17263;48.160;11.452;2023-06-19T02:03:21;20.40;90.00
30473;DHT22;17263;48.160;11.452;2023-06-19T02:05:48;20.40;89.50
30473;DHT22;17263;48.160;11.452;2023-06-19T02:08:14;20.30;89.10
30473;DHT22;17263;48.160;11.452;2023-06-19T02:10:40;20.30;89.30
30473;DHT22;17263;48.160;11.452;2023-06-19T02:13:06;20.20;89.50
30473;DHT22;17263;48.160;11.452;2023-06-19T02:15:32;20.20;89.60
30473;DHT22;17263;48.160;11.452;2023-06-19T02:17:59;20.30;89.80
30473;DHT22;17263;48.160;11.452;2023-06-19T02:20:25;20.20;89.70
30473;DHT22;17263;48.160;11.452;2023-06-19T02:22:52;20.30;90.00
30473;DHT22;17263;48.160;11.452;2023-06-19T02:25:18;20.20;90.10
30473;DHT22;17263;48.160;11.452;2023-06-19T02:27:45;20.20;90.40
30473;DHT22;17263;48.160;11.452;2023-06-19T02:30:11;20.20;90.60
30473;DHT22;17263;48.160;11.452;2023-06-19T02:32:37;20.20;90.90
30473;DHT22;17263;48.160;11.452;2023-06-19T02:35:05;20.20;91.20
30473;DHT22;17263;48.160;11.452;2023-06-19T02:37:32;20.30;91.70
30473;DHT22;17263;48.160;11.452;2023-06-19T02:39:58;20.20;92.00
30473;DHT22;17263;48.160;11.452;2023-06-19T02:42:24;20.20;92.30
30473;DHT22;17263;48.160;11.452;2023-06-19T02:44:50;20.20;92.80
30473;DHT22;17263;48.160;11.452;2023-06-19T02:47:16;20.20;92.70
30473;DHT22;17263;48.160;11.452;2023-06-19T02:49:42;20.20;93.00
30473;DHT22;17263;48.160;11.452;2023-06-19T02:52:08;20.20;93.30
30473;DHT22;17263;48.160;11.452;2023-06-19T02:54:34;20.30;93.60
30473;DHT22;17263;48.160;11.452;2023-06-19T02:57:00;20.20;93.90
30473;DHT22;17263;48.160;11.452;2023-06-19T02:59:26;20.20;94.30
30473;DHT22;17263;48.160;11.452;2023-06-19T03:01:52;20.20;95.30
30473;DHT22;17263;48.160;11.452;2023-06-19T03:04:18;20.20;95.40
30473;DHT22;17263;48.160;11.452;2023-06-19T03:06:44;20.20;95.80
30473;DHT22;17263;48.160;11.452;2023-06-19T03:09:10;20.20;96.50
30473;DHT22;17263;48.160;11.452;2023-06-19T03:11:40;20.20;97.50
30473;DHT22;17263;48.160;11.452;2023-06-19T03:14:06;20.20;97.70
30473;DHT22;17263;48.160;11.452;2023-06-19T03:16:34;20.20;98.10
30473;DHT22;17263;48.160;11.452;2023-06-19T03:19:00;20.10;98.40
30473;DHT22;17263;48.160;11.452;2023-06-19T03:21:26;20.10;98.70
30473;DHT22;17263;48.160;11.452;2023-06-19T03:23:52;20.10;98.80
30473;DHT22;17263;48.160;11.452;2023-06-19T03:26:20;20.10;98.70
30473;DHT22;17263;48.160;11.452;2023-06-19T03:28:46;20.10;98.70
30473;DHT22;17263;48.160;11.452;2023-06-19T03:31:15;20.10;98.90
30473;DHT22;17263;48.160;11.452;2023-06-19T03:33:41;20.10;98.90
30473;DHT22;17263;48.160;11.452;2023-06-19T03:36:07;20.10;98.90
30473;DHT22;17263;48.160;11.452;2023-06-19T03:38:33;20.10;98.60
30473;DHT22;17263;48.160;11.452;2023-06-19T03:40:59;20.10;98.60
30473;DHT22;17263;48.160;11.452;2023-06-19T03:43:25;20.10;98.50
30473;DHT22;17263;48.160;11.452;2023-06-19T03:45:51;20.10;98.40
30473;DHT22;17263;48.160;11.452;2023-06-19T03:48:17;20.10;98.50
30473;DHT22;17263;48.160;11.452;2023-06-19T03:50:43;20.10;98.60
30473;DHT22;17263;48.160;11.452;2023-06-19T03:53:10;20.10;98.90
30473;DHT22;17263;48.160;11.452;2023-06-19T03:55:36;20.10;98.90
30473;DHT22;17263;48.160;11.452;2023-06-19T03:58:02;20.10;99.20
30473;DHT22;17263;48.160;11.452;2023-06-19T04:00:28;20.10;99.50
30473;DHT22;17263;48.160;11.452;2023-06-19T04:02:54;20.10;99.70
30473;DHT22;17263;48.160;11.452;2023-06-19T04:05:20;20.00;99.90
30473;DHT22;17263;48.160;11.452;2023-06-19T04:07:46;20.00;99.90
30473;DHT22;17263;48.160;11.452;2023-06-19T04:10:13;20.10;99.90
30473;DHT22;17263;48.160;11.452;2023-06-19T04:12:39;20.00;99.90
30473;DHT22;17263;48.160;11.452;2023-06-19T04:15:09;20.00;99.90
30473;DHT22;17263;48.160;11.452;2023-06-19T04:17:36;20.10;99.90
30473;DHT22;17263;48.160;11.452;2023-06-19T04:20:02;20.10;99.90
30473;DHT22;17263;48.160;11.452;2023-06-19T04:22:40;20.10;99.90
30473;DHT22;17263;48.160;11.452;2023-06-19T04:25:08;20.10;99.90
30473;DHT22;17263;48.160;11.452;2023-06-19T04:27:34;20.10;99.90
30473;DHT22;17263;48.160;11.452;2023-06-19T04:30:02;20.10;99.90
30473;DHT22;17263;48.160;11.452;2023-06-19T04:32:28;20.10;99.90
30473;DHT22;17263;48.160;11.452;2023-06-19T04:34:54;20.10;99.90
30473;DHT22;17263;48.160;11.452;2023-06-19T04:37:20;20.10;99.90
30473;DHT22;17263;48.160;11.452;2023-06-19T04:39:46;20.20;99.90
30473;DHT22;17263;48.160;11.452;2023-06-19T04:42:17;20.20;99.90
30473;DHT22;17263;48.160;11.452;2023-06-19T04:44:47;20.20;99.90
30473;DHT22;17263;48.160;11.452;2023-06-19T04:47:14;20.30;99.90
30473;DHT22;17263;48.160;11.452;2023-06-19T04:49:41;20.30;99.90
30473;DHT22;17263;48.160;11.452;2023-06-19T04:52:07;20.30;99.90
30473;DHT22;17263;48.160;11.452;2023-06-19T04:54:33;20.20;99.90
30473;DHT22;17263;48.160;11.452;2023-06-19T04:56:59;20.30;99.90
30473;DHT22;17263;48.160;11.452;2023-06-19T04:59:26;20.30;99.90
30473;DHT22;17263;48.160;11.452;2023-06-19T05:01:52;20.30;99.90
30473;DHT22;17263;48.160;11.452;2023-06-19T05:04:23;20.30;99.90
30473;DHT22;17263;48.160;11.452;2023-06-19T05:06:49;20.30;99.90
30473;DHT22;17263;48.160;11.452;2023-06-19T05:09:16;20.30;99.90
30473;DHT22;17263;48.160;11.452;2023-06-19T05:11:42;20.30;99.90
30473;DHT22;17263;48.160;11.452;2023-06-19T05:14:09;20.30;99.90
30473;DHT22;17263;48.160;11.452;2023-06-19T05:16:35;20.30;99.90
30473;DHT22;17263;48.160;11.452;2023-06-19T05:19:01;20.30;99.90
30473;DHT22;17263;48.160;11.452;2023-06-19T05:21:27;20.30;99.90
30473;DHT22;17263;48.160;11.452;2023-06-19T05:23:53;20.30;99.90
30473;DHT22;17263;48.160;11.452;2023-06-19T05:26:22;20.40;99.90
30473;DHT22;17263;48.160;11.452;2023-06-19T05:28:49;20.40;99.90
30473;DHT22;17263;48.160;11.452;2023-06-19T05:31:15;20.50;99.90
30473;DHT22;17263;48.160;11.452;2023-06-19T05:33:41;20.60;99.90
30473;DHT22;17263;48.160;11.452;2023-06-19T05:36:07;20.60;99.90
30473;DHT22;17263;48.160;11.452;2023-06-19T05:38:33;20.70;99.90
30473;DHT22;17263;48.160;11.452;2023-06-19T05:40:59;20.80;99.90
30473;DHT22;17263;48.160;11.452;2023-06-19T05:43:26;20.90;99.90
30473;DHT22;17263;48.160;11.452;2023-06-19T05:45:55;21.00;99.90
30473;DHT22;17263;48.160;11.452;2023-06-19T05:48:22;21.10;99.90
30473;DHT22;17263;48.160;11.452;2023-06-19T05:50:48;21.20;99.90
30473;DHT22;17263;48.160;11.452;2023-06-19T05:53:14;21.20;99.90
30473;DHT22;17263;48.160;11.452;2023-06-19T05:55:40;21.30;99.90
30473;DHT22;17263;48.160;11.452;2023-06-19T05:58:06;21.40;99.90
30473;DHT22;17263;48.160;11.452;2023-06-19T06:00:32;21.50;99.90
30473;DHT22;17263;48.160;11.452;2023-06-19T06:02:58;21.60;99.90
30473;DHT22;17263;48.160;11.452;2023-06-19T06:05:28;21.70;99.90
30473;DHT22;17263;48.160;11.452;2023-06-19T06:07:55;21.80;99.90
30473;DHT22;17263;48.160;11.452;2023-06-19T06:10:23;21.90;99.90
30473;DHT22;17263;48.160;11.452;2023-06-19T06:12:49;22.10;99.90
30473;DHT22;17263;48.160;11.452;2023-06-19T06:15:15;22.20;99.90
30473;DHT22;17263;48.160;11.452;2023-06-19T06:17:42;22.40;99.90
30473;DHT22;17263;48.160;11.452;2023-06-19T06:20:08;22.60;99.90
30473;DHT22;17263;48.160;11.452;2023-06-19T06:22:42;22.70;99.90
30473;DHT22;17263;48.160;11.452;2023-06-19T06:25:09;23.20;99.90
30473;DHT22;17263;48.160;11.452;2023-06-19T06:27:36;23.90;99.90
30473;DHT22;17263;48.160;11.452;2023-06-19T06:30:02;24.80;98.70
30473;DHT22;17263;48.160;11.452;2023-06-19T06:32:29;25.60;96.70
30473;DHT22;17263;48.160;11.452;2023-06-19T06:34:57;26.20;94.10
30473;DHT22;17263;48.160;11.452;2023-06-19T06:37:24;26.60;92.90
30473;DHT22;17263;48.160;11.452;2023-06-19T06:39:51;27.00;91.70
30473;DHT22;17263;48.160;11.452;2023-06-19T06:42:17;27.10;90.50
30473;DHT22;17263;48.160;11.452;2023-06-19T06:44:44;27.10;89.70
30473;DHT22;17263;48.160;11.452;2023-06-19T06:47:10;27.00;89.30
30473;DHT22;17263;48.160;11.452;2023-06-19T06:49:36;26.80;89.60
30473;DHT22;17263;48.160;11.452;2023-06-19T06:52:05;26.60;89.70
30473;DHT22;17263;48.160;11.452;2023-06-19T06:54:31;26.40;90.00
30473;DHT22;17263;48.160;11.452;2023-06-19T06:56:58;26.20;90.40
30473;DHT22;17263;48.160;11.452;2023-06-19T06:59:26;26.10;90.40
30473;DHT22;17263;48.160;11.452;2023-06-19T07:01:55;26.20;90.70
30473;DHT22;17263;48.160;11.452;2023-06-19T07:04:22;26.60;90.60
30473;DHT22;17263;48.160;11.452;2023-06-19T07:06:48;26.90;89.10
30473;DHT22;17263;48.160;11.452;2023-06-19T07:09:14;27.20;88.70
30473;DHT22;17263;48.160;11.452;2023-06-19T07:11:41;27.40;87.30
30473;DHT22;17263;48.160;11.452;2023-06-19T07:14:07;27.50;87.00
30473;DHT22;17263;48.160;11.452;2023-06-19T07:16:33;27.40;86.10
30473;DHT22;17263;48.160;11.452;2023-06-19T07:18:59;27.30;87.10
30473;DHT22;17263;48.160;11.452;2023-06-19T07:21:27;27.40;87.00
30473;DHT22;17263;48.160;11.452;2023-06-19T07:23:54;27.60;85.20
30473;DHT22;17263;48.160;11.452;2023-06-19T07:26:20;27.70;84.60
30473;DHT22;17263;48.160;11.452;2023-06-19T07:28:46;27.90;84.60
30473;DHT22;17263;48.160;11.452;2023-06-19T07:31:12;28.50;84.20
30473;DHT22;17263;48.160;11.452;2023-06-19T07:33:39;29.50;80.90
30473;DHT22;17263;48.160;11.452;2023-06-19T07:36:05;30.30;78.40
30473;DHT22;17263;48.160;11.452;2023-06-19T07:38:31;31.30;74.80
30473;DHT22;17263;48.160;11.452;2023-06-19T07:40:58;32.20;71.00
30473;DHT22;17263;48.160;11.452;2023-06-19T07:43:24;32.50;67.00
30473;DHT22;17263;48.160;11.452;2023-06-19T07:45:50;32.10;66.10
30473;DHT22;17263;48.160;11.452;2023-06-19T07:48:16;31.70;66.20
30473;DHT22;17263;48.160;11.452;2023-06-19T07:50:42;31.90;66.40
30473;DHT22;17263;48.160;11.452;2023-06-19T07:53:08;32.30;65.50
30473;DHT22;17263;48.160;11.452;2023-06-19T07:55:34;32.70;64.00
30473;DHT22;17263;48.160;11.452;2023-06-19T07:58:01;33.00;62.20
30473;DHT22;17263;48.160;11.452;2023-06-19T08:00:27;33.40;60.80
30473;DHT22;17263;48.160;11.452;2023-06-19T08:02:53;33.60;60.10
30473;DHT22;17263;48.160;11.452;2023-06-19T08:05:19;33.50;59.20
30473;DHT22;17263;48.160;11.452;2023-06-19T08:07:45;33.70;59.70
30473;DHT22;17263;48.160;11.452;2023-06-19T08:10:11;34.00;58.90
30473;DHT22;17263;48.160;11.452;2023-06-19T08:12:37;34.20;58.00
30473;DHT22;17263;48.160;11.452;2023-06-19T08:15:04;34.30;58.10
30473;DHT22;17263;48.160;11.452;2023-06-19T08:17:30;34.60;57.30
30473;DHT22;17263;48.160;11.452;2023-06-19T08:19:56;34.90;56.50
30473;DHT22;17263;48.160;11.452;2023-06-19T08:22:22;35.00;55.90
30473;DHT22;17263;48.160;11.452;2023-06-19T08:24:48;35.30;55.20
30473;DHT22;17263;48.160;11.452;2023-06-19T08:27:14;34.90;55.20
30473;DHT22;17263;48.160;11.452;2023-06-19T08:29:40;34.90;55.80
30473;DHT22;17263;48.160;11.452;2023-06-19T08:32:06;35.00;54.80
30473;DHT22;17263;48.160;11.452;2023-06-19T08:34:35;35.00;54.90
30473;DHT22;17263;48.160;11.452;2023-06-19T08:37:01;34.70;55.20
30473;DHT22;17263;48.160;11.452;2023-06-19T08:39:27;34.60;55.80
30473;DHT22;17263;48.160;11.452;2023-06-19T08:41:53;34.50;53.70
30473;DHT22;17263;48.160;11.452;2023-06-19T08:44:19;34.70;53.70
30473;DHT22;17263;48.160;11.452;2023-06-19T08:46:45;34.50;53.30
30473;DHT22;17263;48.160;11.452;2023-06-19T08:49:12;34.70;53.40
30473;DHT22;17263;48.160;11.452;2023-06-19T08:51:40;35.00;53.60
30473;DHT22;17263;48.160;11.452;2023-06-19T08:54:07;35.10;51.70
30473;DHT22;17263;48.160;11.452;2023-06-19T08:56:35;34.80;52.50
30473;DHT22;17263;48.160;11.452;2023-06-19T08:59:17;34.60;52.50
30473;DHT22;17263;48.160;11.452;2023-06-19T09:01:48;33.90;53.40
30473;DHT22;17263;48.160;11.452;2023-06-19T09:04:19;33.50;54.20
30473;DHT22;17263;48.160;11.452;2023-06-19T09:09:23;32.10;56.90
30473;DHT22;17263;48.160;11.452;2023-06-19T09:12:11;31.40;58.00
30473;DHT22;17263;48.160;11.452;2023-06-19T09:14:39;30.80;59.70
30473;DHT22;17263;48.160;11.452;2023-06-19T09:17:26;30.30;61.20
30473;DHT22;17263;48.160;11.452;2023-06-19T09:19:53;30.00;62.70
30473;DHT22;17263;48.160;11.452;2023-06-19T09:22:23;29.70;64.00
30473;DHT22;17263;48.160;11.452;2023-06-19T09:24:50;29.50;64.30
30473;DHT22;17263;48.160;11.452;2023-06-19T09:27:18;29.20;65.10
30473;DHT22;17263;48.160;11.452;2023-06-19T09:29:49;28.90;66.30
30473;DHT22;17263;48.160;11.452;2023-06-19T09:32:24;28.70;67.30
30473;DHT22;17263;48.160;11.452;2023-06-19T09:34:58;28.50;68.70
30473;DHT22;17263;48.160;11.452;2023-06-19T09:37:26;28.60;68.40
30473;DHT22;17263;48.160;11.452;2023-06-19T09:39:59;28.80;69.40
30473;DHT22;17263;48.160;11.452;2023-06-19T09:42:32;28.90;67.90
30473;DHT22;17263;48.160;11.452;2023-06-19T09:45:03;29.20;67.70
30473;DHT22;17263;48.160;11.452;2023-06-19T09:47:33;29.70;66.60
30473;DHT22;17263;48.160;11.452;2023-06-19T09:50:02;30.00;65.50
30473;DHT22;17263;48.160;11.452;2023-06-19T09:52:28;30.30;65.20
30473;DHT22;17263;48.160;11.452;2023-06-19T09:54:55;30.70;64.60
30473;DHT22;17263;48.160;11.452;2023-06-19T09:57:24;31.00;63.40
30473;DHT22;17263;48.160;11.452;2023-06-19T09:59:53;31.40;62.90
30473;DHT22;17263;48.160;11.452;2023-06-19T10:02:20;31.70;61.90
30473;DHT22;17263;48.160;11.452;2023-06-19T10:04:53;31.80;60.90
30473;DHT22;17263;48.160;11.452;2023-06-19T10:07:22;32.00;60.10
30473;DHT22;17263;48.160;11.452;2023-06-19T10:10:06;31.90;60.30
30473;DHT22;17263;48.160;11.452;2023-06-19T10:12:43;31.80;59.00
30473;DHT22;17263;48.160;11.452;2023-06-19T10:15:17;31.90;60.00
30473;DHT22;17263;48.160;11.452;2023-06-19T10:23:12;31.80;59.40
30473;DHT22;17263;48.160;11.452;2023-06-19T10:25:40;32.00;59.00
30473;DHT22;17263;48.160;11.452;2023-06-19T10:30:57;31.70;58.00
30473;DHT22;17263;48.160;11.452;2023-06-19T10:33:25;31.50;58.60
30473;DHT22;17263;48.160;11.452;2023-06-19T10:35:52;31.50;58.50
30473;DHT22;17263;48.160;11.452;2023-06-19T10:38:18;31.30;58.60
30473;DHT22;17263;48.160;11.452;2023-06-19T10:40:45;31.10;60.20
30473;DHT22;17263;48.160;11.452;2023-06-19T10:43:13;30.90;59.50
30473;DHT22;17263;48.160;11.452;2023-06-19T10:45:39;31.00;60.40
30473;DHT22;17263;48.160;11.452;2023-06-19T10:48:05;30.90;60.00
30473;DHT22;17263;48.160;11.452;2023-06-19T10:50:36;30.50;60.30
30473;DHT22;17263;48.160;11.452;2023-06-19T10:53:04;30.30;61.30
30473;DHT22;17263;48.160;11.452;2023-06-19T10:55:30;30.00;61.70
30473;DHT22;17263;48.160;11.452;2023-06-19T10:57:56;30.00;61.40
30473;DHT22;17263;48.160;11.452;2023-06-19T11:00:27;29.80;62.20
30473;DHT22;17263;48.160;11.452;2023-06-19T11:02:54;29.60;62.70
30473;DHT22;17263;48.160;11.452;2023-06-19T11:05:22;29.20;63.50
30473;DHT22;17263;48.160;11.452;2023-06-19T11:07:53;29.10;64.00
30473;DHT22;17263;48.160;11.452;2023-06-19T11:10:22;29.00;64.40
30473;DHT22;17263;48.160;11.452;2023-06-19T11:12:49;29.00;64.30
30473;DHT22;17263;48.160;11.452;2023-06-19T11:15:15;29.00;64.50
30473;DHT22;17263;48.160;11.452;2023-06-19T11:17:41;28.80;64.20
30473;DHT22;17263;48.160;11.452;2023-06-19T11:20:13;28.80;65.70
30473;DHT22;17263;48.160;11.452;2023-06-19T11:22:41;28.80;65.10
30473;DHT22;17263;48.160;11.452;2023-06-19T11:25:08;28.80;64.30
30473;DHT22;17263;48.160;11.452;2023-06-19T11:27:38;28.70;64.50
30473;DHT22;17263;48.160;11.452;2023-06-19T11:30:05;28.70;65.20
30473;DHT22;17263;48.160;11.452;2023-06-19T11:32:35;28.80;65.90
30473;DHT22;17263;48.160;11.452;2023-06-19T11:35:11;28.90;64.10
30473;DHT22;17263;48.160;11.452;2023-06-19T11:37:41;28.80;64.10
30473;DHT22;17263;48.160;11.452;2023-06-19T11:40:08;28.70;65.60
30473;DHT22;17263;48.160;11.452;2023-06-19T11:42:48;28.70;65.50
30473;DHT22;17263;48.160;11.452;2023-06-19T11:45:15;28.70;64.00
30473;DHT22;17263;48.160;11.452;2023-06-19T11:47:43;28.80;64.40
30473;DHT22;17263;48.160;11.452;2023-06-19T11:50:10;28.90;64.00
30473;DHT22;17263;48.160;11.452;2023-06-19T11:52:36;28.70;64.50
30473;DHT22;17263;48.160;11.452;2023-06-19T11:55:02;28.70;64.90
30473;DHT22;17263;48.160;11.452;2023-06-19T11:57:28;28.60;64.40
30473;DHT22;17263;48.160;11.452;2023-06-19T11:59:55;28.60;64.20
30473;DHT22;17263;48.160;11.452;2023-06-19T12:02:21;28.60;63.50
30473;DHT22;17263;48.160;11.452;2023-06-19T12:04:47;28.60;64.40
30473;DHT22;17263;48.160;11.452;2023-06-19T12:07:13;28.60;64.90
30473;DHT22;17263;48.160;11.452;2023-06-19T12:09:41;28.70;63.70
30473;DHT22;17263;48.160;11.452;2023-06-19T12:12:09;28.60;64.40
30473;DHT22;17263;48.160;11.452;2023-06-19T12:14:35;28.50;64.80
30473;DHT22;17263;48.160;11.452;2023-06-19T12:17:03;28.40;65.00
30473;DHT22;17263;48.160;11.452;2023-06-19T12:19:29;28.40;65.30
30473;DHT22;17263;48.160;11.452;2023-06-19T12:21:55;28.40;65.90
30473;DHT22;17263;48.160;11.452;2023-06-19T12:24:21;28.50;64.90
30473;DHT22;17263;48.160;11.452;2023-06-19T12:26:47;28.60;64.20
30473;DHT22;17263;48.160;11.452;2023-06-19T12:29:13;28.50;64.90
30473;DHT22;17263;48.160;11.452;2023-06-19T12:31:39;28.50;64.50
30473;DHT22;17263;48.160;11.452;2023-06-19T12:34:05;28.60;63.80
30473;DHT22;17263;48.160;11.452;2023-06-19T12:36:32;28.70;64.10
30473;DHT22;17263;48.160;11.452;2023-06-19T12:38:59;28.70;63.30
30473;DHT22;17263;48.160;11.452;2023-06-19T12:41:25;28.60;64.40
30473;DHT22;17263;48.160;11.452;2023-06-19T12:43:51;28.60;63.90
30473;DHT22;17263;48.160;11.452;2023-06-19T12:46:17;28.60;63.70
30473;DHT22;17263;48.160;11.452;2023-06-19T12:48:43;28.60;63.70
30473;DHT22;17263;48.160;11.452;2023-06-19T12:51:09;28.60;63.00
30473;DHT22;17263;48.160;11.452;2023-06-19T12:53:36;28.60;63.60
30473;DHT22;17263;48.160;11.452;2023-06-19T12:56:02;28.60;63.40
30473;DHT22;17263;48.160;11.452;2023-06-19T12:58:28;28.50;64.00
30473;DHT22;17263;48.160;11.452;2023-06-19T13:00:54;28.50;64.00
30473;DHT22;17263;48.160;11.452;2023-06-19T13:03:20;28.60;64.60
30473;DHT22;17263;48.160;11.452;2023-06-19T13:05:46;28.50;63.70
30473;DHT22;17263;48.160;11.452;2023-06-19T13:08:12;28.60;65.10
30473;DHT22;17263;48.160;11.452;2023-06-19T13:10:39;28.70;63.50
30473;DHT22;17263;48.160;11.452;2023-06-19T13:13:06;28.60;63.20
30473;DHT22;17263;48.160;11.452;2023-06-19T13:15:32;28.60;63.40
30473;DHT22;17263;48.160;11.452;2023-06-19T13:18:01;28.60;62.80
30473;DHT22;17263;48.160;11.452;2023-06-19T13:20:27;28.60;62.20
30473;DHT22;17263;48.160;11.452;2023-06-19T13:22:53;28.60;63.00
30473;DHT22;17263;48.160;11.452;2023-06-19T13:25:20;28.60;62.30
30473;DHT22;17263;48.160;11.452;2023-06-19T13:27:46;28.60;63.10
30473;DHT22;17263;48.160;11.452;2023-06-19T13:30:13;28.60;62.40
30473;DHT22;17263;48.160;11.452;2023-06-19T13:32:39;28.70;63.00
30473;DHT22;17263;48.160;11.452;2023-06-19T13:35:06;28.70;63.20
30473;DHT22;17263;48.160;11.452;2023-06-19T13:37:36;28.70;63.50
30473;DHT22;17263;48.160;11.452;2023-06-19T13:40:05;28.80;64.10
30473;DHT22;17263;48.160;11.452;2023-06-19T13:42:31;28.90;64.40
30473;DHT22;17263;48.160;11.452;2023-06-19T13:44:57;29.00;63.60
30473;DHT22;17263;48.160;11.452;2023-06-19T13:47:23;29.00;62.50
30473;DHT22;17263;48.160;11.452;2023-06-19T13:49:53;28.90;62.10
30473;DHT22;17263;48.160;11.452;2023-06-19T13:52:19;28.90;63.00
30473;DHT22;17263;48.160;11.452;2023-06-19T13:54:46;28.90;63.40
30473;DHT22;17263;48.160;11.452;2023-06-19T13:57:12;28.90;63.10
30473;DHT22;17263;48.160;11.452;2023-06-19T13:59:38;28.80;63.20
30473;DHT22;17263;48.160;11.452;2023-06-19T14:02:04;28.90;63.00
30473;DHT22;17263;48.160;11.452;2023-06-19T14:04:30;28.90;63.70
30473;DHT22;17263;48.160;11.452;2023-06-19T14:06:57;29.00;62.20
30473;DHT22;17263;48.160;11.452;2023-06-19T14:09:23;29.10;62.00
30473;DHT22;17263;48.160;11.452;2023-06-19T14:11:49;29.10;62.80
30473;DHT22;17263;48.160;11.452;2023-06-19T14:14:15;29.20;62.50
30473;DHT22;17263;48.160;11.452;2023-06-19T14:16:41;29.30;62.30
30473;DHT22;17263;48.160;11.452;2023-06-19T14:19:07;29.30;61.40
30473;DHT22;17263;48.160;11.452;2023-06-19T14:21:33;29.20;61.90
30473;DHT22;17263;48.160;11.452;2023-06-19T14:23:59;29.30;61.60
30473;DHT22;17263;48.160;11.452;2023-06-19T14:26:25;29.30;61.60
30473;DHT22;17263;48.160;11.452;2023-06-19T14:28:51;29.30;61.70
30473;DHT22;17263;48.160;11.452;2023-06-19T14:31:23;29.30;61.20
30473;DHT22;17263;48.160;11.452;2023-06-19T14:33:49;29.20;62.50
30473;DHT22;17263;48.160;11.452;2023-06-19T14:36:16;29.20;62.10
30473;DHT22;17263;48.160;11.452;2023-06-19T14:38:42;29.20;62.40
30473;DHT22;17263;48.160;11.452;2023-06-19T14:41:08;29.10;62.80
30473;DHT22;17263;48.160;11.452;2023-06-19T14:43:34;29.00;62.40
30473;DHT22;17263;48.160;11.452;2023-06-19T14:46:01;29.00;63.20
30473;DHT22;17263;48.160;11.452;2023-06-19T14:48:29;28.90;62.50
30473;DHT22;17263;48.160;11.452;2023-06-19T14:50:56;28.90;62.50
30473;DHT22;17263;48.160;11.452;2023-06-19T14:53:22;28.80;62.20
30473;DHT22;17263;48.160;11.452;2023-06-19T14:55:48;28.80;62.70
30473;DHT22;17263;48.160;11.452;2023-06-19T14:58:14;28.80;64.50
30473;DHT22;17263;48.160;11.452;2023-06-19T15:00:41;28.80;62.80
30473;DHT22;17263;48.160;11.452;2023-06-19T15:03:07;28.90;61.80
30473;DHT22;17263;48.160;11.452;2023-06-19T15:05:34;29.00;62.80
30473;DHT22;17263;48.160;11.452;2023-06-19T15:08:00;29.00;62.00
30473;DHT22;17263;48.160;11.452;2023-06-19T15:10:27;29.00;61.80
30473;DHT22;17263;48.160;11.452;2023-06-19T15:12:53;28.90;63.00
30473;DHT22;17263;48.160;11.452;2023-06-19T15:15:19;29.00;62.60
30473;DHT22;17263;48.160;11.452;2023-06-19T15:17:45;29.00;62.60
30473;DHT22;17263;48.160;11.452;2023-06-19T15:20:12;29.10;63.30
30473;DHT22;17263;48.160;11.452;2023-06-19T15:22:40;29.20;62.40
30473;DHT22;17263;48.160;11.452;2023-06-19T15:25:06;29.20;61.60
30473;DHT22;17263;48.160;11.452;2023-06-19T15:27:32;29.20;61.80